Goddard, KS (67052)

5:16 AM CDT on July 05, 2015 (GMT -0500)
K0HYD, 2 Mi West of Goddard | | Change Station
CLOSE
Current Station
Personal Weather Station
Location: Goddard, KS
Elevation: 1470 ft
Nearby Weather Stations

Elev 1470 ft 37.66 °N, 97.61 °W | Updated 7 minutes ago

Clear
Clear
72.9 °F
Feels Like 71 °F
N
1.0
Wind Variable Wind from ESE
Gusts 5.0 mph

Today
High -- | Low -- °F
--% Chance of Precip.
Yesterday
High -- | Low -- °F
Precip. -- in
6:14 AM 8:55 PM
Waning Gibbous, 86% visible
Pressure 29.87 in
Visibility 10.0 miles
Clouds Few 8000 ft
Heat Index 71 °F
Dew Point 70 °F
Humidity 90%
Rainfall 0.00 in
Snow Depth Not available.
UV 0 out of 12
Pollen 4.10 out of 12
Air Quality Not available.
Flu Activity Not available.
METAR KICT 050953Z 15006KT 10SM FEW080 23/21 A2992 RMK AO2 SLP115 T02330206

More Conditions Fewer Conditions

Pressure 29.87 in
Visibility 10.0 miles
Clouds Few 8000 ft
Heat Index 71 °F
Dew Point 70 °F
Humidity 90%
Rainfall 0.00 in
Snow Depth Not available.
UV 0 out of 12
Pollen 4.10 out of 12
Air Quality Not available.
Flu Activity Not available.
METAR KICT 050953Z 15006KT 10SM FEW080 23/21 A2992 RMK AO2 SLP115 T02330206

More Conditions Fewer Conditions

10-Day Weather Forecast

×

Almanac

Astronomy

Jul. 05, 2015 Rise Set
Actual Time
Civil Twilight
Nautical Twilight
Astronomical Twilight
Moon
Length of Visible Light
Length of Day
Tomorrow will be .
, % of the Moon is Illuminated

Today's Extremes

State Highs State Lows

Community

WunderPhotos

Upload Photos

1,835,218 photos uploaded!

WunderBlogs® & News

Nearby

Air Quality

  Air Quality AQ Index Pollutant
Not available.

Snow Depth

Station Depth Elevation

Earthquake Activity

City Distance Mag. Time & Date
Minimum magnitude displayed is 2.5.

Coastal Water Temperatures

Place Temperature

Stations

Nearby Weather Stations

Station Location Temp. Windchill Dew Point Humidity Wind Precip. Elev Updated Type